createdAt,value
2019-02-10T00:01:49.480Z,3.10
2019-02-10T00:06:54.942Z,3.60
2019-02-10T00:12:00.313Z,2.60
2019-02-10T00:17:05.853Z,2.63
2019-02-10T00:22:11.227Z,2.77
2019-02-10T00:27:16.942Z,3.20
2019-02-10T00:32:22.269Z,3.10
2019-02-10T00:37:27.610Z,2.70
2019-02-10T00:42:32.956Z,2.83
2019-02-10T00:47:38.437Z,2.70
2019-02-10T00:52:43.631Z,3.00
2019-02-10T00:57:48.803Z,19.00
2019-02-10T01:02:55.080Z,4.33
2019-02-10T01:08:01.067Z,3.73
2019-02-10T01:13:06.859Z,6.77
2019-02-10T01:18:13.255Z,10.18
2019-02-10T01:23:18.803Z,6.00
2019-02-10T01:28:24.575Z,29.87
2019-02-10T01:33:29.827Z,4.37
2019-02-10T01:38:35.179Z,9.87
2019-02-10T01:43:40.753Z,5.97
2019-02-10T01:48:46.207Z,6.30
2019-02-10T01:53:51.878Z,5.87
2019-02-10T01:58:57.544Z,4.00
2019-02-10T02:04:02.899Z,8.00
2019-02-10T02:09:10.421Z,4.50
2019-02-10T02:14:15.864Z,3.97
2019-02-10T02:19:21.745Z,5.00
2019-02-10T02:24:27.404Z,5.60
2019-02-10T02:29:32.871Z,4.50
2019-02-10T02:34:38.541Z,5.50
2019-02-10T02:39:43.792Z,4.00
2019-02-10T02:44:49.259Z,3.60
2019-02-10T02:49:55.248Z,3.47
2019-02-10T02:55:00.670Z,3.87
2019-02-10T03:00:08.485Z,3.60
2019-02-10T03:05:13.673Z,4.20
2019-02-10T03:10:19.021Z,3.65
2019-02-10T03:15:24.377Z,3.23
2019-02-10T03:20:29.932Z,3.80
2019-02-10T03:25:35.199Z,3.50
2019-02-10T03:30:40.805Z,3.23
2019-02-10T03:35:46.107Z,3.63
2019-02-10T03:40:51.482Z,3.30
2019-02-10T03:45:57.136Z,3.33
2019-02-10T03:51:02.497Z,3.83
2019-02-10T03:56:08.066Z,3.67
2019-02-10T04:01:13.402Z,3.77
2019-02-10T04:06:19.088Z,3.72
2019-02-10T04:11:24.453Z,3.47
2019-02-10T04:16:30.023Z,3.10
2019-02-10T04:21:35.728Z,3.57
2019-02-10T04:26:40.926Z,3.35
2019-02-10T04:31:46.154Z,3.53
2019-02-10T04:36:51.519Z,3.40
2019-02-10T04:41:56.828Z,3.57
2019-02-10T04:47:02.057Z,3.57
2019-02-10T04:52:07.460Z,3.77
2019-02-10T04:57:13.186Z,3.52
2019-02-10T05:02:20.427Z,3.72
2019-02-10T05:07:25.761Z,3.77
2019-02-10T05:12:30.999Z,3.23
2019-02-10T05:17:36.793Z,4.00
2019-02-10T05:22:42.124Z,3.10
2019-02-10T05:27:47.270Z,3.50
2019-02-10T05:32:52.458Z,3.10
2019-02-10T05:38:03.822Z,3.40
2019-02-10T05:43:05.482Z,3.05
2019-02-10T05:48:10.886Z,2.80
2019-02-10T05:53:16.426Z,3.67
2019-02-10T05:58:22.001Z,3.47
2019-02-10T06:03:27.482Z,3.33
2019-02-10T06:08:33.115Z,3.60
2019-02-10T06:13:38.487Z,3.10
2019-02-10T06:18:43.835Z,5.33
2019-02-10T06:23:49.511Z,10.63
2019-02-10T06:28:55.064Z,3.80
2019-02-10T06:34:00.231Z,4.60
2019-02-10T06:39:06.748Z,3.77
2019-02-10T06:44:12.219Z,11.27
2019-02-10T06:49:17.809Z,6.20
2019-02-10T06:54:23.114Z,11.53
2019-02-10T06:59:48.828Z,6.37
2019-02-10T07:04:54.190Z,28.03
2019-02-10T07:09:59.754Z,11.30
2019-02-10T07:15:05.998Z,7.95
2019-02-10T07:20:36.815Z,7.80
2019-02-10T07:25:44.688Z,15.53
2019-02-10T07:30:58.838Z,7.27
2019-02-10T07:36:19.105Z,7.30
2019-02-10T07:41:45.745Z,14.20
2019-02-10T07:47:00.025Z,4.00
2019-02-10T07:52:29.579Z,8.43
2019-02-10T07:58:09.411Z,7.97
2019-02-10T08:03:23.682Z,16.05
2019-02-10T08:08:46.612Z,9.10
2019-02-10T08:14:22.613Z,9.20
2019-02-10T08:19:36.880Z,8.23
2019-02-10T08:24:57.132Z,11.77
2019-02-10T08:30:28.035Z,4.10
2019-02-10T08:35:43.269Z,8.23
2019-02-10T08:41:04.217Z,7.43
2019-02-10T08:46:12.503Z,4.47
2019-02-10T08:51:40.168Z,10.50
2019-02-10T08:56:45.455Z,9.28
2019-02-10T09:01:50.661Z,20.77
2019-02-10T09:06:55.930Z,9.97
2019-02-10T09:12:01.400Z,18.47
2019-02-10T09:17:06.884Z,7.30
2019-02-10T09:22:12.181Z,6.30
2019-02-10T09:27:18.424Z,6.50
2019-02-10T09:32:24.678Z,7.93
2019-02-10T09:37:30.246Z,9.50
2019-02-10T09:42:37.545Z,14.50
2019-02-10T09:47:43.301Z,6.57
2019-02-10T09:52:48.563Z,10.57
2019-02-10T09:57:54.143Z,34.23
2019-02-10T10:02:59.294Z,33.40
2019-02-10T10:08:04.984Z,9.70
2019-02-10T10:13:10.887Z,10.50
2019-02-10T10:18:16.573Z,11.55
2019-02-10T10:23:22.570Z,10.28
2019-02-10T10:28:27.930Z,7.80
2019-02-10T10:33:33.497Z,5.95
2019-02-10T10:38:38.957Z,14.17
2019-02-10T10:43:44.322Z,15.40
2019-02-10T10:48:49.987Z,5.70
2019-02-10T10:53:55.353Z,11.53
2019-02-10T10:59:02.004Z,9.10
2019-02-10T11:04:07.287Z,5.27
2019-02-10T11:09:12.688Z,8.68
2019-02-10T11:14:19.897Z,6.78
2019-02-10T11:19:25.154Z,6.57
2019-02-10T11:24:30.673Z,6.60
2019-02-10T11:29:36.009Z,8.47
2019-02-10T11:34:46.103Z,17.17
2019-02-10T11:39:48.175Z,18.93
2019-02-10T11:44:53.449Z,14.43
2019-02-10T11:49:58.719Z,22.50
2019-02-10T11:55:06.349Z,6.92
2019-02-10T12:00:17.197Z,8.93
2019-02-10T12:05:22.539Z,7.35
2019-02-10T12:10:28.634Z,6.43
2019-02-10T12:15:33.978Z,5.15
2019-02-10T12:20:39.344Z,10.37
2019-02-10T12:25:44.878Z,11.40
2019-02-10T12:30:50.686Z,15.00
2019-02-10T12:35:58.328Z,12.10
2019-02-10T12:41:03.207Z,10.70
2019-02-10T12:46:08.585Z,8.80
2019-02-10T12:51:14.110Z,6.45
2019-02-10T12:56:19.315Z,14.45
2019-02-10T13:01:24.877Z,9.00
2019-02-10T13:06:30.336Z,10.10
2019-02-10T13:11:35.811Z,15.97
2019-02-10T13:16:41.087Z,9.00
2019-02-10T13:21:46.488Z,8.07
2019-02-10T13:26:51.814Z,12.33
2019-02-10T13:31:57.088Z,29.67
2019-02-10T13:37:02.700Z,17.17
2019-02-10T13:42:08.038Z,19.37
2019-02-10T13:47:13.605Z,26.82
2019-02-10T13:52:19.263Z,10.70
2019-02-10T13:57:24.624Z,9.87
2019-02-10T14:02:30.089Z,17.67
2019-02-10T14:07:35.646Z,21.50
2019-02-10T14:12:40.988Z,19.67
2019-02-10T14:17:46.588Z,18.03
2019-02-10T14:22:51.855Z,13.83
2019-02-10T14:27:57.394Z,11.80
2019-02-10T14:33:02.961Z,13.87
2019-02-10T14:38:08.721Z,10.80
2019-02-10T14:43:13.987Z,18.07
2019-02-10T14:48:19.089Z,25.20
2019-02-10T14:53:24.454Z,14.58
2019-02-10T14:58:29.853Z,13.43
2019-02-10T15:03:35.004Z,19.43
2019-02-10T15:08:40.495Z,15.57
2019-02-10T15:13:46.068Z,20.17
2019-02-10T15:18:51.804Z,24.53
2019-02-10T15:23:57.051Z,34.80
2019-02-10T15:29:02.605Z,18.43
2019-02-10T15:34:08.180Z,17.13
2019-02-10T15:39:16.130Z,21.20
2019-02-10T15:44:21.396Z,20.60
2019-02-10T15:49:26.790Z,17.95
2019-02-10T15:54:32.276Z,22.02
2019-02-10T15:59:37.451Z,21.77
2019-02-10T16:04:42.796Z,22.90
2019-02-10T16:09:48.173Z,48.33
2019-02-10T16:14:53.521Z,27.17
2019-02-10T16:19:58.909Z,27.07
2019-02-10T16:25:06.698Z,26.07
2019-02-10T16:30:17.678Z,55.57
2019-02-10T16:35:22.937Z,23.67
2019-02-10T16:40:27.982Z,25.43
2019-02-10T16:45:33.385Z,27.07
2019-02-10T16:50:38.594Z,23.90
2019-02-10T16:55:43.902Z,22.57
2019-02-10T17:00:49.307Z,23.57
2019-02-10T17:05:54.777Z,20.40
2019-02-10T17:11:00.253Z,21.67
2019-02-10T17:16:05.593Z,22.03
2019-02-10T17:21:10.753Z,29.50
2019-02-10T17:26:15.936Z,22.47
2019-02-10T17:31:21.886Z,23.17
2019-02-10T17:36:27.544Z,22.37
2019-02-10T17:41:33.009Z,23.47
2019-02-10T17:46:38.116Z,22.97
2019-02-10T17:51:43.346Z,22.57
2019-02-10T17:56:48.745Z,30.47
2019-02-10T18:01:54.363Z,24.07
2019-02-10T18:07:00.013Z,26.03
2019-02-10T18:12:05.387Z,24.87
2019-02-10T18:17:17.630Z,28.63
2019-02-10T18:22:34.836Z,25.10
2019-02-10T18:27:41.664Z,23.10
2019-02-10T18:32:48.941Z,22.97
2019-02-10T18:37:55.986Z,23.60
2019-02-10T18:43:08.852Z,22.58
2019-02-10T18:48:15.755Z,23.87
2019-02-10T18:53:38.936Z,22.07
2019-02-10T18:58:59.213Z,23.70
2019-02-10T19:04:07.045Z,23.87
2019-02-10T19:09:14.246Z,27.93
2019-02-10T19:14:27.376Z,24.93
2019-02-10T19:19:34.280Z,25.10
2019-02-10T19:24:46.756Z,26.90
2019-02-10T19:29:59.751Z,26.53
2019-02-10T19:35:23.443Z,26.67
2019-02-10T19:40:35.965Z,25.77
2019-02-10T19:45:45.796Z,25.63
2019-02-10T19:51:09.105Z,26.90
2019-02-10T19:56:32.166Z,32.03
2019-02-10T20:01:54.212Z,29.43
2019-02-10T20:07:01.223Z,25.83
2019-02-10T20:12:09.251Z,26.57
2019-02-10T20:17:31.317Z,31.70
2019-02-10T20:22:47.506Z,30.80
2019-02-10T20:27:57.467Z,36.43
2019-02-10T20:33:21.169Z,28.27
2019-02-10T20:38:39.243Z,27.30
2019-02-10T20:43:46.300Z,30.08
2019-02-10T20:48:56.486Z,27.37
2019-02-10T20:54:20.310Z,26.97
2019-02-10T20:59:33.514Z,27.23
2019-02-10T21:04:52.197Z,26.57
2019-02-10T21:10:16.336Z,33.47
2019-02-10T21:15:35.511Z,28.65
2019-02-10T21:20:45.420Z,35.60
2019-02-10T21:25:59.062Z,25.30
2019-02-10T21:31:12.376Z,29.57
2019-02-10T21:36:28.038Z,29.03
2019-02-10T21:41:35.132Z,28.20
2019-02-10T21:46:42.049Z,29.20
2019-02-10T21:51:47.497Z,29.37
2019-02-10T21:56:52.869Z,28.67
2019-02-10T22:01:58.610Z,31.47
2019-02-10T22:07:04.895Z,31.65
2019-02-10T22:12:10.266Z,34.20
2019-02-10T22:17:15.830Z,31.57
2019-02-10T22:22:21.166Z,31.07
2019-02-10T22:27:27.038Z,30.37
2019-02-10T22:32:32.408Z,31.70
2019-02-10T22:37:37.876Z,32.87
2019-02-10T22:42:45.747Z,30.73
2019-02-10T22:47:50.815Z,31.90
2019-02-10T22:52:56.015Z,36.47
2019-02-10T22:58:01.249Z,29.17
2019-02-10T23:03:07.220Z,46.47
2019-02-10T23:08:12.575Z,33.43
2019-02-10T23:13:18.250Z,38.30
2019-02-10T23:18:23.716Z,34.83
2019-02-10T23:23:29.071Z,46.57
2019-02-10T23:28:34.636Z,40.93
2019-02-10T23:33:39.845Z,42.53
2019-02-10T23:38:45.367Z,34.13
2019-02-10T23:43:50.786Z,34.43
2019-02-10T23:48:56.165Z,42.23
2019-02-10T23:54:01.429Z,42.00
2019-02-10T23:59:06.789Z,33.93
